This is the latest recevied weather packets stored in our database for station/object N5DGC. If no packets are shown the sender has not sent any weather packets the latest 1 day(s).
| Time | Temp. | Humidity | Pressure | Rain* | Wind** | Luminosity | Snow |
|---|---|---|---|---|---|---|---|
| 1778034719 | 11.11° C | 62% | 1230.7 hPa | 0 mm | 2.68 m/s, 62° | 0 W/m² | - |
| 1778034416 | 11.11° C | 61% | 1230.8 hPa | 0 mm | 1.34 m/s, 52° | 0 W/m² | - |
| 1778034113 | 11.67° C | 59% | 1230.6 hPa | 0 mm | 1.34 m/s, 4° | 0 W/m² | - |
| 1778033811 | 11.67° C | 57% | 1230.4 hPa | 0 mm | 1.34 m/s, 29° | 0 W/m² | - |
| 1778033508 | 12.22° C | 55% | 1230.4 hPa | 0 mm | 2.24 m/s, 357° | 0 W/m² | - |
| 1778033205 | 12.78° C | 53% | 1230 hPa | 0 mm | 2.24 m/s, 343° | 1 W/m² | - |
| 1778032903 | 13.33° C | 52% | 1229.8 hPa | 0 mm | 2.24 m/s, 34° | 1 W/m² | - |
| 1778032600 | 14.44° C | 48% | 1229.9 hPa | 0 mm | 1.34 m/s, 26° | 3 W/m² | - |
| 1778032297 | 15° C | 48% | 1229.7 hPa | 0 mm | 0.45 m/s, 11° | 4 W/m² | - |
| 1778031995 | 15° C | 47% | 1229.3 hPa | 0 mm | 0.45 m/s, 82° | 6 W/m² | - |
| 1778031690 | 15.56° C | 47% | 1229.1 hPa | 0 mm | 0 m/s | 8 W/m² | - |
| 1778031389 | 15.56° C | 46% | 1228.9 hPa | 0 mm | 1.34 m/s, 148° | 9 W/m² | - |
| 1778031085 | 15.56° C | 46% | 1229 hPa | 0 mm | 0 m/s | 11 W/m² | - |
| 1778030781 | 15.56° C | 46% | 1229.1 hPa | 0 mm | 0.45 m/s, 130° | 13 W/m² | - |
| 1778030478 | 16.11° C | 44% | 1229.1 hPa | 0 mm | 0.89 m/s, 67° | 13 W/m² | - |
| 1778030176 | 16.11° C | 43% | 1229 hPa | 0 mm | 0.89 m/s, 71° | 13 W/m² | - |
| 1778029872 | 16.67° C | 43% | 1229 hPa | 0 mm | 0.89 m/s, 43° | 13 W/m² | - |
| 1778029571 | 16.67° C | 43% | 1229.1 hPa | 0 mm | 0.45 m/s, 99° | 22 W/m² | - |
| 1778029268 | 17.22° C | 41% | 1229.1 hPa | 0 mm | 0.89 m/s, 95° | 24 W/m² | - |
| 1778028965 | 17.78° C | 39% | 1228.7 hPa | 0 mm | 0.89 m/s, 83° | 31 W/m² | - |
| 1778028661 | 18.89° C | 38% | 1228.4 hPa | 0 mm | 0.89 m/s, 30° | 63 W/m² | - |
| 1778028358 | 18.33° C | 39% | 1228.6 hPa | 0 mm | 0.45 m/s, 102° | 99 W/m² | - |
| 1778028054 | 17.78° C | 42% | 1228.7 hPa | 0 mm | 1.79 m/s, 303° | 139 W/m² | - |
| 1778027751 | 17.78° C | 47% | 1228.9 hPa | 0 mm | 1.34 m/s, 318° | 149 W/m² | - |
| 1778027447 | 17.78° C | 43% | 1229.2 hPa | 0 mm | 0.89 m/s, 345° | 112 W/m² | - |
* Rain latest hour (hover to see other rain measurements)
** Current wind speed in m/s (hover to see current wind gust speed)